sensor_id;sensor_type;location;lat;lon;timestamp;P1;durP1;ratioP1;P2;durP2;ratioP2
62110;SDS011;48102;47.526;19.072;2022-09-09T03:44:08;3.28;;;2.75;;
62110;SDS011;48102;47.526;19.072;2022-09-09T03:47:12;3.15;;;2.85;;
62110;SDS011;48102;47.526;19.072;2022-09-09T03:50:16;2.65;;;2.45;;
62110;SDS011;48102;47.526;19.072;2022-09-09T03:53:22;2.42;;;2.22;;
62110;SDS011;48102;47.526;19.072;2022-09-09T03:56:27;2.60;;;2.40;;
62110;SDS011;48102;47.526;19.072;2022-09-09T04:02:33;3.73;;;2.30;;
62110;SDS011;48102;47.526;19.072;2022-09-09T04:05:36;2.22;;;1.85;;
62110;SDS011;48102;47.526;19.072;2022-09-09T04:08:43;1.95;;;1.73;;
62110;SDS011;48102;47.526;19.072;2022-09-09T04:11:48;1.95;;;1.75;;
62110;SDS011;48102;47.526;19.072;2022-09-09T04:14:51;2.28;;;1.70;;
62110;SDS011;48102;47.526;19.072;2022-09-09T04:17:54;2.65;;;1.40;;
62110;SDS011;48102;47.526;19.072;2022-09-09T04:20:57;2.65;;;1.37;;
62110;SDS011;48102;47.526;19.072;2022-09-09T04:27:03;2.17;;;1.80;;
62110;SDS011;48102;47.526;19.072;2022-09-09T04:30:06;2.67;;;1.80;;
62110;SDS011;48102;47.526;19.072;2022-09-09T04:33:11;2.03;;;1.70;;
62110;SDS011;48102;47.526;19.072;2022-09-09T04:36:14;7.28;;;1.83;;
62110;SDS011;48102;47.526;19.072;2022-09-09T04:39:17;4.50;;;1.77;;
62110;SDS011;48102;47.526;19.072;2022-09-09T04:42:23;1.77;;;1.67;;
62110;SDS011;48102;47.526;19.072;2022-09-09T04:45:25;3.90;;;1.80;;
62110;SDS011;48102;47.526;19.072;2022-09-09T04:48:29;1.42;;;1.33;;
62110;SDS011;48102;47.526;19.072;2022-09-09T04:51:34;2.08;;;1.40;;
62110;SDS011;48102;47.526;19.072;2022-09-09T04:54:38;3.35;;;1.52;;
62110;SDS011;48102;47.526;19.072;2022-09-09T04:57:42;2.67;;;1.33;;
62110;SDS011;48102;47.526;19.072;2022-09-09T05:00:45;2.22;;;1.35;;
62110;SDS011;48102;47.526;19.072;2022-09-09T05:03:48;2.55;;;1.90;;
62110;SDS011;48102;47.526;19.072;2022-09-09T05:06:52;3.80;;;1.58;;
62110;SDS011;48102;47.526;19.072;2022-09-09T05:09:54;1.42;;;1.33;;
62110;SDS011;48102;47.526;19.072;2022-09-09T05:12:58;1.60;;;1.40;;
62110;SDS011;48102;47.526;19.072;2022-09-09T05:16:02;2.62;;;1.80;;
62110;SDS011;48102;47.526;19.072;2022-09-09T05:19:06;1.33;;;1.23;;
62110;SDS011;48102;47.526;19.072;2022-09-09T05:22:11;2.25;;;1.75;;
62110;SDS011;48102;47.526;19.072;2022-09-09T05:25:14;1.52;;;1.20;;
62110;SDS011;48102;47.526;19.072;2022-09-09T05:28:17;1.70;;;1.27;;
62110;SDS011;48102;47.526;19.072;2022-09-09T05:31:21;2.95;;;1.30;;
62110;SDS011;48102;47.526;19.072;2022-09-09T05:37:28;3.70;;;1.20;;
62110;SDS011;48102;47.526;19.072;2022-09-09T05:40:32;2.58;;;1.30;;
62110;SDS011;48102;47.526;19.072;2022-09-09T05:43:36;1.75;;;1.10;;
62110;SDS011;48102;47.526;19.072;2022-09-09T05:46:39;1.67;;;1.20;;
62110;SDS011;48102;47.526;19.072;2022-09-09T05:52:45;4.35;;;1.67;;
62110;SDS011;48102;47.526;19.072;2022-09-09T05:55:48;1.33;;;1.15;;
62110;SDS011;48102;47.526;19.072;2022-09-09T06:01:57;1.70;;;1.02;;
62110;SDS011;48102;47.526;19.072;2022-09-09T06:05:00;3.25;;;1.20;;
62110;SDS011;48102;47.526;19.072;2022-09-09T06:08:03;1.30;;;1.12;;
62110;SDS011;48102;47.526;19.072;2022-09-09T06:11:08;1.85;;;1.15;;
62110;SDS011;48102;47.526;19.072;2022-09-09T06:14:12;3.30;;;1.33;;
62110;SDS011;48102;47.526;19.072;2022-09-09T06:17:16;3.17;;;1.02;;
62110;SDS011;48102;47.526;19.072;2022-09-09T06:20:18;1.55;;;1.10;;
62110;SDS011;48102;47.526;19.072;2022-09-09T06:23:22;1.98;;;0.93;;
62110;SDS011;48102;47.526;19.072;2022-09-09T06:26:26;2.35;;;1.05;;
62110;SDS011;48102;47.526;19.072;2022-09-09T06:29:34;0.98;;;0.90;;
62110;SDS011;48102;47.526;19.072;2022-09-09T06:32:37;0.77;;;0.77;;
62110;SDS011;48102;47.526;19.072;2022-09-09T06:35:41;1.80;;;1.10;;
62110;SDS011;48102;47.526;19.072;2022-09-09T06:38:44;2.90;;;1.00;;
62110;SDS011;48102;47.526;19.072;2022-09-09T06:41:48;1.10;;;0.90;;
62110;SDS011;48102;47.526;19.072;2022-09-09T06:44:53;1.05;;;0.80;;
62110;SDS011;48102;47.526;19.072;2022-09-09T06:47:56;0.77;;;0.70;;
62110;SDS011;48102;47.526;19.072;2022-09-09T06:51:06;0.88;;;0.62;;
62110;SDS011;48102;47.526;19.072;2022-09-09T06:54:12;0.93;;;0.62;;
62110;SDS011;48102;47.526;19.072;2022-09-09T06:57:16;1.20;;;0.80;;
62110;SDS011;48102;47.526;19.072;2022-09-09T07:00:40;1.25;;;0.95;;
62110;SDS011;48102;47.526;19.072;2022-09-09T07:03:45;1.58;;;0.90;;
62110;SDS011;48102;47.526;19.072;2022-09-09T07:06:53;1.60;;;1.15;;
62110;SDS011;48102;47.526;19.072;2022-09-09T07:09:56;2.97;;;1.17;;
62110;SDS011;48102;47.526;19.072;2022-09-09T07:16:12;3.33;;;1.02;;
62110;SDS011;48102;47.526;19.072;2022-09-09T07:19:17;3.30;;;1.00;;
62110;SDS011;48102;47.526;19.072;2022-09-09T07:22:21;2.80;;;1.23;;
62110;SDS011;48102;47.526;19.072;2022-09-09T07:25:24;1.02;;;0.85;;
62110;SDS011;48102;47.526;19.072;2022-09-09T07:28:30;2.55;;;1.25;;
62110;SDS011;48102;47.526;19.072;2022-09-09T07:31:35;1.55;;;1.20;;
62110;SDS011;48102;47.526;19.072;2022-09-09T07:34:40;3.78;;;1.15;;
62110;SDS011;48102;47.526;19.072;2022-09-09T07:37:43;1.12;;;0.95;;
62110;SDS011;48102;47.526;19.072;2022-09-09T07:41:02;1.15;;;0.80;;
62110;SDS011;48102;47.526;19.072;2022-09-09T07:44:08;3.25;;;1.00;;
62110;SDS011;48102;47.526;19.072;2022-09-09T07:47:16;1.33;;;0.88;;
62110;SDS011;48102;47.526;19.072;2022-09-09T07:50:19;0.93;;;0.82;;
62110;SDS011;48102;47.526;19.072;2022-09-09T07:53:22;2.62;;;0.90;;
62110;SDS011;48102;47.526;19.072;2022-09-09T07:56:26;1.10;;;0.90;;
62110;SDS011;48102;47.526;19.072;2022-09-09T07:59:29;1.87;;;0.85;;
62110;SDS011;48102;47.526;19.072;2022-09-09T08:02:33;1.35;;;0.80;;
62110;SDS011;48102;47.526;19.072;2022-09-09T08:05:36;0.93;;;0.62;;
62110;SDS011;48102;47.526;19.072;2022-09-09T08:08:41;0.73;;;0.68;;
62110;SDS011;48102;47.526;19.072;2022-09-09T08:11:46;1.60;;;0.68;;
62110;SDS011;48102;47.526;19.072;2022-09-09T08:14:49;1.58;;;0.73;;
62110;SDS011;48102;47.526;19.072;2022-09-09T08:17:55;0.80;;;0.80;;
62110;SDS011;48102;47.526;19.072;2022-09-09T08:21:04;1.35;;;0.88;;
62110;SDS011;48102;47.526;19.072;2022-09-09T08:24:08;1.45;;;0.80;;
62110;SDS011;48102;47.526;19.072;2022-09-09T08:27:18;9.48;;;1.12;;
62110;SDS011;48102;47.526;19.072;2022-09-09T08:30:22;4.53;;;0.93;;
62110;SDS011;48102;47.526;19.072;2022-09-09T08:33:25;1.73;;;0.65;;
62110;SDS011;48102;47.526;19.072;2022-09-09T08:36:29;6.12;;;0.95;;
62110;SDS011;48102;47.526;19.072;2022-09-09T08:39:36;6.07;;;0.90;;
62110;SDS011;48102;47.526;19.072;2022-09-09T08:42:41;1.80;;;0.80;;
62110;SDS011;48102;47.526;19.072;2022-09-09T08:45:55;1.37;;;0.75;;
62110;SDS011;48102;47.526;19.072;2022-09-09T08:52:29;1.00;;;0.77;;
62110;SDS011;48102;47.526;19.072;2022-09-09T08:55:52;5.10;;;0.98;;
62110;SDS011;48102;47.526;19.072;2022-09-09T08:59:13;2.70;;;0.73;;
62110;SDS011;48102;47.526;19.072;2022-09-09T09:02:22;1.02;;;0.60;;
62110;SDS011;48102;47.526;19.072;2022-09-09T09:05:40;1.30;;;0.70;;
62110;SDS011;48102;47.526;19.072;2022-09-09T09:12:41;1.85;;;0.70;;
62110;SDS011;48102;47.526;19.072;2022-09-09T09:15:48;1.10;;;0.50;;
62110;SDS011;48102;47.526;19.072;2022-09-09T09:18:56;3.12;;;0.70;;
62110;SDS011;48102;47.526;19.072;2022-09-09T09:22:11;0.88;;;0.57;;
62110;SDS011;48102;47.526;19.072;2022-09-09T09:25:35;1.40;;;0.70;;
62110;SDS011;48102;47.526;19.072;2022-09-09T09:28:42;0.98;;;0.60;;
62110;SDS011;48102;47.526;19.072;2022-09-09T09:31:48;2.95;;;0.57;;
62110;SDS011;48102;47.526;19.072;2022-09-09T09:34:57;2.25;;;0.62;;
62110;SDS011;48102;47.526;19.072;2022-09-09T09:38:01;0.90;;;0.60;;
62110;SDS011;48102;47.526;19.072;2022-09-09T09:41:36;3.00;;;0.60;;
62110;SDS011;48102;47.526;19.072;2022-09-09T09:44:41;1.27;;;0.60;;
62110;SDS011;48102;47.526;19.072;2022-09-09T09:47:45;1.80;;;0.77;;
62110;SDS011;48102;47.526;19.072;2022-09-09T09:50:50;2.70;;;0.77;;
62110;SDS011;48102;47.526;19.072;2022-09-09T09:54:03;4.28;;;0.60;;
62110;SDS011;48102;47.526;19.072;2022-09-09T09:57:13;0.95;;;0.62;;
62110;SDS011;48102;47.526;19.072;2022-09-09T10:00:22;1.87;;;0.90;;
62110;SDS011;48102;47.526;19.072;2022-09-09T10:03:30;2.00;;;0.60;;
62110;SDS011;48102;47.526;19.072;2022-09-09T10:06:36;0.75;;;0.55;;
62110;SDS011;48102;47.526;19.072;2022-09-09T10:09:42;1.10;;;0.47;;
62110;SDS011;48102;47.526;19.072;2022-09-09T10:19:33;1.12;;;0.70;;
62110;SDS011;48102;47.526;19.072;2022-09-09T10:22:37;0.40;;;0.40;;
62110;SDS011;48102;47.526;19.072;2022-09-09T10:26:02;0.88;;;0.40;;
62110;SDS011;48102;47.526;19.072;2022-09-09T10:39:18;0.45;;;0.40;;
62110;SDS011;48102;47.526;19.072;2022-09-09T10:42:39;0.57;;;0.43;;
62110;SDS011;48102;47.526;19.072;2022-09-09T10:45:46;0.55;;;0.40;;
62110;SDS011;48102;47.526;19.072;2022-09-09T10:49:13;1.40;;;0.62;;
62110;SDS011;48102;47.526;19.072;2022-09-09T10:52:40;2.17;;;0.60;;
62110;SDS011;48102;47.526;19.072;2022-09-09T10:55:51;0.77;;;0.55;;
62110;SDS011;48102;47.526;19.072;2022-09-09T11:02:27;0.90;;;0.70;;
62110;SDS011;48102;47.526;19.072;2022-09-09T11:05:41;2.10;;;0.60;;
62110;SDS011;48102;47.526;19.072;2022-09-09T11:08:49;0.50;;;0.50;;
62110;SDS011;48102;47.526;19.072;2022-09-09T11:11:58;1.00;;;0.57;;
62110;SDS011;48102;47.526;19.072;2022-09-09T11:15:20;1.17;;;0.77;;
62110;SDS011;48102;47.526;19.072;2022-09-09T11:18:26;0.65;;;0.55;;
62110;SDS011;48102;47.526;19.072;2022-09-09T11:21:35;1.73;;;0.60;;
62110;SDS011;48102;47.526;19.072;2022-09-09T11:24:50;0.52;;;0.50;;
62110;SDS011;48102;47.526;19.072;2022-09-09T11:41:32;0.65;;;0.47;;
62110;SDS011;48102;47.526;19.072;2022-09-09T11:44:39;0.68;;;0.50;;
62110;SDS011;48102;47.526;19.072;2022-09-09T11:47:51;0.50;;;0.50;;
62110;SDS011;48102;47.526;19.072;2022-09-09T11:50:59;0.88;;;0.60;;
62110;SDS011;48102;47.526;19.072;2022-09-09T11:54:29;1.30;;;0.50;;
62110;SDS011;48102;47.526;19.072;2022-09-09T11:57:35;0.40;;;0.30;;
62110;SDS011;48102;47.526;19.072;2022-09-09T12:00:48;1.55;;;0.57;;
62110;SDS011;48102;47.526;19.072;2022-09-09T12:03:55;0.40;;;0.40;;
62110;SDS011;48102;47.526;19.072;2022-09-09T12:07:05;0.98;;;0.50;;
62110;SDS011;48102;47.526;19.072;2022-09-09T12:10:38;0.30;;;0.30;;
62110;SDS011;48102;47.526;19.072;2022-09-09T12:13:51;2.60;;;0.45;;
62110;SDS011;48102;47.526;19.072;2022-09-09T12:16:55;1.05;;;0.55;;
62110;SDS011;48102;47.526;19.072;2022-09-09T12:20:15;0.77;;;0.45;;
62110;SDS011;48102;47.526;19.072;2022-09-09T12:27:06;0.50;;;0.40;;
62110;SDS011;48102;47.526;19.072;2022-09-09T12:30:16;1.12;;;0.55;;
62110;SDS011;48102;47.526;19.072;2022-09-09T12:33:19;1.55;;;0.52;;
62110;SDS011;48102;47.526;19.072;2022-09-09T12:36:24;0.70;;;0.40;;
62110;SDS011;48102;47.526;19.072;2022-09-09T12:39:36;1.02;;;0.50;;
62110;SDS011;48102;47.526;19.072;2022-09-09T12:42:46;0.88;;;0.50;;
62110;SDS011;48102;47.526;19.072;2022-09-09T12:45:49;0.65;;;0.45;;
62110;SDS011;48102;47.526;19.072;2022-09-09T12:48:59;3.45;;;0.40;;
62110;SDS011;48102;47.526;19.072;2022-09-09T12:52:02;1.20;;;0.40;;
62110;SDS011;48102;47.526;19.072;2022-09-09T12:55:30;2.03;;;0.43;;
62110;SDS011;48102;47.526;19.072;2022-09-09T12:58:44;1.80;;;0.50;;
62110;SDS011;48102;47.526;19.072;2022-09-09T13:01:56;2.95;;;0.35;;
62110;SDS011;48102;47.526;19.072;2022-09-09T13:08:24;0.85;;;0.50;;
62110;SDS011;48102;47.526;19.072;2022-09-09T13:11:36;0.60;;;0.50;;
62110;SDS011;48102;47.526;19.072;2022-09-09T13:14:45;0.60;;;0.55;;
62110;SDS011;48102;47.526;19.072;2022-09-09T13:18:00;1.00;;;0.70;;
62110;SDS011;48102;47.526;19.072;2022-09-09T13:21:08;0.90;;;0.68;;
62110;SDS011;48102;47.526;19.072;2022-09-09T13:24:25;1.55;;;0.57;;
62110;SDS011;48102;47.526;19.072;2022-09-09T13:27:36;0.52;;;0.50;;
62110;SDS011;48102;47.526;19.072;2022-09-09T13:30:41;5.10;;;0.75;;
62110;SDS011;48102;47.526;19.072;2022-09-09T13:33:46;1.25;;;0.50;;
62110;SDS011;48102;47.526;19.072;2022-09-09T13:36:49;2.97;;;0.50;;
62110;SDS011;48102;47.526;19.072;2022-09-09T13:39:53;6.15;;;0.60;;
62110;SDS011;48102;47.526;19.072;2022-09-09T13:42:56;2.87;;;0.45;;
62110;SDS011;48102;47.526;19.072;2022-09-09T13:46:01;2.33;;;0.93;;
62110;SDS011;48102;47.526;19.072;2022-09-09T13:52:12;1.45;;;0.60;;
62110;SDS011;48102;47.526;19.072;2022-09-09T13:55:16;1.55;;;0.47;;
62110;SDS011;48102;47.526;19.072;2022-09-09T13:58:20;4.80;;;0.45;;
62110;SDS011;48102;47.526;19.072;2022-09-09T14:01:24;1.35;;;0.50;;
62110;SDS011;48102;47.526;19.072;2022-09-09T14:04:31;0.52;;;0.30;;
62110;SDS011;48102;47.526;19.072;2022-09-09T14:07:33;0.68;;;0.40;;
62110;SDS011;48102;47.526;19.072;2022-09-09T14:10:36;0.50;;;0.40;;
62110;SDS011;48102;47.526;19.072;2022-09-09T14:13:39;0.62;;;0.30;;
62110;SDS011;48102;47.526;19.072;2022-09-09T14:16:42;2.55;;;0.52;;
62110;SDS011;48102;47.526;19.072;2022-09-09T14:19:45;0.60;;;0.40;;
62110;SDS011;48102;47.526;19.072;2022-09-09T14:22:48;0.30;;;0.30;;
62110;SDS011;48102;47.526;19.072;2022-09-09T14:25:51;0.25;;;0.25;;
62110;SDS011;48102;47.526;19.072;2022-09-09T14:28:54;0.57;;;0.30;;
62110;SDS011;48102;47.526;19.072;2022-09-09T14:31:57;0.40;;;0.40;;
62110;SDS011;48102;47.526;19.072;2022-09-09T14:35:03;2.97;;;0.50;;
62110;SDS011;48102;47.526;19.072;2022-09-09T14:38:06;2.40;;;0.62;;
62110;SDS011;48102;47.526;19.072;2022-09-09T14:41:10;1.25;;;0.45;;
62110;SDS011;48102;47.526;19.072;2022-09-09T14:44:14;1.10;;;0.50;;
62110;SDS011;48102;47.526;19.072;2022-09-09T14:47:18;1.10;;;0.60;;
62110;SDS011;48102;47.526;19.072;2022-09-09T14:50:21;2.22;;;0.30;;
62110;SDS011;48102;47.526;19.072;2022-09-09T14:53:25;0.95;;;0.50;;
62110;SDS011;48102;47.526;19.072;2022-09-09T14:56:29;1.62;;;0.50;;
62110;SDS011;48102;47.526;19.072;2022-09-09T14:59:33;3.60;;;0.45;;
62110;SDS011;48102;47.526;19.072;2022-09-09T15:02:36;1.50;;;0.30;;
62110;SDS011;48102;47.526;19.072;2022-09-09T15:05:39;0.70;;;0.60;;
62110;SDS011;48102;47.526;19.072;2022-09-09T15:08:43;1.00;;;0.50;;
62110;SDS011;48102;47.526;19.072;2022-09-09T15:11:47;1.65;;;0.32;;
62110;SDS011;48102;47.526;19.072;2022-09-09T15:14:49;2.75;;;0.93;;
62110;SDS011;48102;47.526;19.072;2022-09-09T15:17:52;0.80;;;0.43;;
62110;SDS011;48102;47.526;19.072;2022-09-09T15:20:55;2.00;;;0.40;;
62110;SDS011;48102;47.526;19.072;2022-09-09T15:23:58;0.55;;;0.40;;
62110;SDS011;48102;47.526;19.072;2022-09-09T15:27:02;0.57;;;0.40;;
